createdAt,value
2023-02-23T00:01:17.211Z,38.48
2023-02-23T00:03:45.617Z,38.48
2023-02-23T00:06:13.700Z,39.37
2023-02-23T00:08:40.966Z,40.83
2023-02-23T00:11:10.527Z,39.24
2023-02-23T00:13:38.149Z,38.75
2023-02-23T00:16:09.391Z,39.10
2023-02-23T00:18:45.154Z,41.56
2023-02-23T00:21:15.269Z,42.57
2023-02-23T00:23:43.167Z,41.40
2023-02-23T00:26:10.513Z,41.76
2023-02-23T00:28:37.939Z,40.42
2023-02-23T00:31:05.510Z,41.58
2023-02-23T00:33:34.731Z,42.80
2023-02-23T00:36:05.637Z,42.51
2023-02-23T00:38:36.130Z,42.43
2023-02-23T00:41:12.091Z,41.81
2023-02-23T00:43:47.752Z,39.94
2023-02-23T00:46:19.024Z,39.82
2023-02-23T00:48:46.478Z,41.69
2023-02-23T00:51:13.717Z,40.71
2023-02-23T00:53:44.300Z,41.89
2023-02-23T00:56:12.790Z,41.18
2023-02-23T00:58:40.023Z,41.88
2023-02-23T01:01:08.005Z,43.43
2023-02-23T01:03:35.926Z,41.83
2023-02-23T01:06:06.180Z,41.79
2023-02-23T01:08:34.253Z,41.48
2023-02-23T01:11:14.910Z,42.74
2023-02-23T01:13:43.053Z,42.70
2023-02-23T01:16:11.752Z,42.91
2023-02-23T01:18:39.660Z,43.04
2023-02-23T01:21:14.177Z,44.49
2023-02-23T01:23:41.595Z,43.19
2023-02-23T01:26:19.171Z,42.53
2023-02-23T01:28:53.571Z,43.86
2023-02-23T01:31:23.731Z,44.81
2023-02-23T01:33:54.662Z,44.28
2023-02-23T01:36:23.013Z,45.17
2023-02-23T01:38:50.578Z,44.48
2023-02-23T01:41:18.058Z,42.75
2023-02-23T01:44:05.988Z,42.90
2023-02-23T01:46:36.600Z,43.28
2023-02-23T01:49:03.954Z,41.87
2023-02-23T01:51:32.981Z,41.93
2023-02-23T01:54:02.136Z,43.55
2023-02-23T01:56:30.281Z,43.59
2023-02-23T01:58:58.042Z,42.74
2023-02-23T02:01:25.682Z,43.34
2023-02-23T02:04:06.671Z,42.67
2023-02-23T02:06:34.757Z,43.33
2023-02-23T02:09:08.042Z,43.11
2023-02-23T02:11:39.171Z,42.23
2023-02-23T02:14:12.872Z,42.82
2023-02-23T02:16:42.446Z,44.27
2023-02-23T02:19:18.819Z,42.73
2023-02-23T02:22:04.964Z,42.56
2023-02-23T02:24:39.400Z,42.85
2023-02-23T02:27:07.586Z,42.40
2023-02-23T02:29:53.670Z,42.75
2023-02-23T02:32:20.901Z,43.72
2023-02-23T02:34:51.770Z,42.19
2023-02-23T02:37:27.504Z,42.45
2023-02-23T02:40:14.291Z,43.96
2023-02-23T02:42:59.657Z,43.74
2023-02-23T02:45:31.752Z,43.42
2023-02-23T02:48:11.088Z,42.07
2023-02-23T02:50:46.961Z,43.46
2023-02-23T02:53:15.212Z,43.44
2023-02-23T02:55:48.196Z,43.53
2023-02-23T02:58:15.502Z,44.35
2023-02-23T03:01:05.450Z,44.32
2023-02-23T03:03:55.643Z,44.84
2023-02-23T03:06:48.526Z,43.72
2023-02-23T03:09:54.062Z,42.82
2023-02-23T03:12:39.946Z,44.72
2023-02-23T03:15:26.306Z,45.32
2023-02-23T03:18:26.696Z,45.14
2023-02-23T03:21:13.458Z,44.44
2023-02-23T03:24:01.753Z,43.08
2023-02-23T03:27:00.127Z,45.22
2023-02-23T03:30:06.007Z,43.82
2023-02-23T03:33:00.278Z,44.39
2023-02-23T03:35:48.483Z,43.90
2023-02-23T03:38:35.624Z,44.12
2023-02-23T03:41:21.618Z,43.28
2023-02-23T03:44:09.019Z,42.51
2023-02-23T03:46:55.027Z,41.99
2023-02-23T03:49:41.489Z,42.37
2023-02-23T03:52:35.629Z,41.40
2023-02-23T03:55:23.466Z,39.88
2023-02-23T03:58:09.816Z,40.88
2023-02-23T04:00:58.800Z,40.20
2023-02-23T04:03:45.193Z,42.65
2023-02-23T04:06:31.622Z,42.44
2023-02-23T04:09:18.281Z,40.86
2023-02-23T04:12:04.221Z,41.20
2023-02-23T04:14:33.889Z,42.08
2023-02-23T04:17:01.025Z,42.08
2023-02-23T04:19:28.803Z,40.15
2023-02-23T04:21:56.268Z,41.42
2023-02-23T04:24:23.422Z,41.33
2023-02-23T04:26:50.665Z,42.32
2023-02-23T04:29:18.093Z,42.05
2023-02-23T04:31:46.010Z,42.69
2023-02-23T04:34:14.363Z,44.13
2023-02-23T04:36:42.700Z,44.33
2023-02-23T04:39:09.857Z,44.42
2023-02-23T04:41:37.049Z,44.24
2023-02-23T04:44:05.501Z,42.49
2023-02-23T04:46:32.663Z,43.42
2023-02-23T04:48:59.967Z,43.23
2023-02-23T04:51:32.210Z,45.55
2023-02-23T04:53:59.710Z,44.58
2023-02-23T04:56:26.863Z,44.02
2023-02-23T04:58:54.418Z,44.20
2023-02-23T05:01:22.558Z,43.86
2023-02-23T05:03:50.109Z,45.53
2023-02-23T05:06:17.734Z,45.57
2023-02-23T05:08:45.676Z,43.21
2023-02-23T05:11:12.847Z,44.36
2023-02-23T05:13:40.366Z,44.62
2023-02-23T05:16:07.811Z,44.32
2023-02-23T05:18:34.982Z,44.40
2023-02-23T05:21:03.092Z,44.90
2023-02-23T05:23:30.402Z,44.10
2023-02-23T05:26:01.384Z,44.89
2023-02-23T05:28:28.815Z,45.38
2023-02-23T05:30:56.070Z,44.73
2023-02-23T05:33:23.264Z,44.34
2023-02-23T05:35:50.689Z,42.96
2023-02-23T05:38:17.863Z,45.27
2023-02-23T05:40:45.008Z,46.26
2023-02-23T05:43:12.451Z,45.02
2023-02-23T05:45:40.418Z,44.41
2023-02-23T05:48:07.932Z,43.92
2023-02-23T05:50:35.746Z,43.85
2023-02-23T05:53:03.407Z,45.33
2023-02-23T05:55:30.853Z,44.82
2023-02-23T05:57:58.367Z,43.33
2023-02-23T06:00:25.700Z,43.02
2023-02-23T06:02:54.036Z,43.42
2023-02-23T06:05:21.314Z,42.73
2023-02-23T06:07:48.471Z,43.52
2023-02-23T06:10:16.276Z,44.37
2023-02-23T06:12:43.437Z,42.83
2023-02-23T06:15:10.819Z,42.41
2023-02-23T06:17:38.292Z,43.37
2023-02-23T06:20:07.137Z,42.19
2023-02-23T06:22:34.375Z,41.19
2023-02-23T06:25:04.996Z,41.71
2023-02-23T06:27:32.192Z,42.16
2023-02-23T06:29:59.400Z,43.26
2023-02-23T06:32:27.077Z,43.81
2023-02-23T06:34:54.851Z,43.98
2023-02-23T06:37:22.034Z,42.30
2023-02-23T06:39:50.478Z,42.97
2023-02-23T06:42:17.667Z,42.50
2023-02-23T06:44:44.813Z,41.40
2023-02-23T06:47:12.239Z,42.69
2023-02-23T06:49:40.610Z,42.25
2023-02-23T06:52:08.105Z,41.69
2023-02-23T06:54:35.816Z,41.99
2023-02-23T06:57:02.988Z,42.47
2023-02-23T06:59:30.556Z,42.20
2023-02-23T07:01:58.032Z,42.48
2023-02-23T07:04:25.812Z,42.62
2023-02-23T07:06:53.507Z,42.72
2023-02-23T07:09:20.944Z,42.27
2023-02-23T07:11:48.173Z,41.68
2023-02-23T07:14:21.487Z,40.79
2023-02-23T07:16:53.846Z,41.61
2023-02-23T07:19:21.025Z,42.54
2023-02-23T07:21:48.184Z,42.38
2023-02-23T07:24:15.647Z,42.12
2023-02-23T07:26:47.224Z,41.92
2023-02-23T07:29:14.492Z,41.45
2023-02-23T07:31:42.044Z,41.26
2023-02-23T07:34:09.381Z,40.47
2023-02-23T07:36:36.722Z,40.93
2023-02-23T07:39:04.921Z,41.22
2023-02-23T07:41:32.344Z,40.67
2023-02-23T07:43:59.772Z,40.41
2023-02-23T07:46:27.207Z,40.68
2023-02-23T07:48:54.370Z,40.58
2023-02-23T07:51:21.739Z,42.73
2023-02-23T07:53:49.551Z,42.47
2023-02-23T07:56:16.737Z,41.09
2023-02-23T07:58:44.497Z,41.99
2023-02-23T08:01:12.429Z,40.45
2023-02-23T08:03:39.971Z,40.13
2023-02-23T08:06:07.377Z,41.34
2023-02-23T08:08:35.382Z,41.93
2023-02-23T08:11:04.048Z,40.49
2023-02-23T08:13:31.454Z,40.90
2023-02-23T08:16:01.350Z,40.13
2023-02-23T08:18:28.767Z,40.42
2023-02-23T08:20:59.454Z,39.87
2023-02-23T08:23:26.811Z,39.64
2023-02-23T08:25:54.766Z,39.11
2023-02-23T08:28:22.563Z,38.94
2023-02-23T08:30:49.781Z,39.59
2023-02-23T08:33:17.544Z,39.31
2023-02-23T08:35:45.337Z,39.01
2023-02-23T08:38:12.502Z,39.66
2023-02-23T08:40:39.947Z,39.93
2023-02-23T08:43:07.106Z,38.02
2023-02-23T08:45:34.258Z,39.48
2023-02-23T08:48:01.690Z,39.63
2023-02-23T08:50:28.954Z,38.99
2023-02-23T08:52:56.219Z,38.26
2023-02-23T08:55:24.028Z,40.75
2023-02-23T08:57:51.243Z,39.53
2023-02-23T09:00:18.660Z,39.86
2023-02-23T09:02:48.268Z,37.71
2023-02-23T09:05:15.862Z,37.61
2023-02-23T09:07:45.241Z,38.38
2023-02-23T09:10:13.876Z,39.14
2023-02-23T09:12:41.069Z,40.85
2023-02-23T09:15:08.606Z,40.01
2023-02-23T09:17:36.057Z,39.35
2023-02-23T09:20:03.817Z,38.11
2023-02-23T09:22:31.447Z,40.86
2023-02-23T09:24:58.898Z,39.02
2023-02-23T09:27:26.076Z,37.92
2023-02-23T09:29:53.235Z,38.23
2023-02-23T09:32:20.782Z,39.69
2023-02-23T09:34:48.715Z,38.91
2023-02-23T09:37:15.963Z,39.03
2023-02-23T09:39:43.665Z,38.94
2023-02-23T09:42:19.890Z,39.99
2023-02-23T09:44:47.584Z,39.33
2023-02-23T09:47:19.860Z,39.89
2023-02-23T09:49:47.313Z,39.72
2023-02-23T09:52:16.835Z,38.69
2023-02-23T09:54:44.223Z,39.14
2023-02-23T09:57:13.232Z,39.64
2023-02-23T09:59:40.340Z,38.26
2023-02-23T10:02:10.433Z,37.75
2023-02-23T10:04:44.957Z,37.05
2023-02-23T10:07:17.848Z,37.59
2023-02-23T10:09:52.082Z,37.10
2023-02-23T10:12:22.192Z,37.00
2023-02-23T10:15:08.570Z,37.69
2023-02-23T10:17:51.094Z,38.52
2023-02-23T10:20:30.376Z,37.18
2023-02-23T10:22:58.406Z,36.53
2023-02-23T10:25:26.410Z,37.96
2023-02-23T10:27:55.727Z,38.83
2023-02-23T10:30:24.263Z,38.41
2023-02-23T10:32:57.811Z,38.08
2023-02-23T10:35:26.471Z,39.08
2023-02-23T10:37:53.926Z,38.67
2023-02-23T10:40:28.817Z,39.08
2023-02-23T10:42:56.554Z,37.62
2023-02-23T10:45:24.905Z,38.29
2023-02-23T10:47:53.169Z,38.11
2023-02-23T10:50:22.577Z,37.67
2023-02-23T10:52:50.893Z,35.73
2023-02-23T10:55:24.500Z,37.83
2023-02-23T10:58:01.098Z,36.63
2023-02-23T11:00:33.186Z,35.97
2023-02-23T11:03:01.570Z,36.54
2023-02-23T11:05:55.268Z,37.59
2023-02-23T11:08:25.083Z,37.28
2023-02-23T11:11:04.317Z,38.10
2023-02-23T11:13:39.326Z,37.51
2023-02-23T11:16:13.943Z,36.48
2023-02-23T11:18:51.444Z,36.42
2023-02-23T11:21:22.248Z,35.05
2023-02-23T11:23:50.253Z,35.69
2023-02-23T11:26:23.072Z,34.93
2023-02-23T11:28:51.758Z,34.58
2023-02-23T11:31:23.264Z,34.57
2023-02-23T11:33:51.037Z,34.79
2023-02-23T11:36:26.904Z,35.25
2023-02-23T11:39:20.124Z,35.00
2023-02-23T11:41:47.296Z,35.54
2023-02-23T11:44:22.175Z,35.93
2023-02-23T11:46:50.716Z,36.22
2023-02-23T11:49:20.314Z,36.37
2023-02-23T11:51:49.123Z,36.27
2023-02-23T11:54:45.658Z,37.96
2023-02-23T11:57:19.719Z,35.75
2023-02-23T11:59:48.147Z,36.37
2023-02-23T12:02:29.133Z,36.05
2023-02-23T12:05:09.638Z,36.84
2023-02-23T12:07:43.950Z,37.22
2023-02-23T12:10:15.218Z,37.38
2023-02-23T12:12:45.278Z,35.29
2023-02-23T12:15:16.228Z,36.91
2023-02-23T12:17:48.942Z,37.34
2023-02-23T12:20:18.662Z,36.40
2023-02-23T12:22:50.555Z,37.67
2023-02-23T12:25:18.030Z,37.80
2023-02-23T12:27:46.549Z,37.81
2023-02-23T12:30:26.981Z,37.45
2023-02-23T12:32:57.946Z,37.13
2023-02-23T12:35:31.173Z,36.75
2023-02-23T12:38:01.188Z,36.42
2023-02-23T12:40:29.338Z,35.47
2023-02-23T12:43:02.170Z,37.13
2023-02-23T12:45:49.558Z,38.45
2023-02-23T12:48:16.783Z,36.52
2023-02-23T12:50:52.889Z,35.34
2023-02-23T12:53:21.632Z,37.09
2023-02-23T12:55:49.050Z,37.41
2023-02-23T12:58:23.054Z,37.18
2023-02-23T13:00:58.712Z,36.97
2023-02-23T13:03:44.319Z,36.96
2023-02-23T13:06:11.772Z,35.84
2023-02-23T13:08:51.120Z,37.06
2023-02-23T13:11:23.216Z,37.25
2023-02-23T13:13:57.957Z,37.46
2023-02-23T13:16:40.342Z,37.29
2023-02-23T13:19:16.409Z,36.98
2023-02-23T13:21:46.889Z,36.66
2023-02-23T13:24:14.055Z,35.86
2023-02-23T13:26:41.158Z,36.11
2023-02-23T13:29:27.415Z,35.17
2023-02-23T13:31:54.719Z,35.05
2023-02-23T13:34:25.739Z,34.24
2023-02-23T13:36:52.945Z,35.80
2023-02-23T13:39:20.130Z,34.87
2023-02-23T13:42:01.805Z,35.97
2023-02-23T13:44:38.117Z,35.90
2023-02-23T13:47:14.937Z,35.48
2023-02-23T13:49:46.497Z,35.49
2023-02-23T13:52:35.730Z,35.26
2023-02-23T13:55:04.010Z,35.79
2023-02-23T13:57:31.651Z,35.64
2023-02-23T13:59:58.962Z,36.05
2023-02-23T14:02:30.699Z,36.38
2023-02-23T14:05:01.604Z,37.37
2023-02-23T14:07:30.998Z,36.56
2023-02-23T14:10:09.510Z,35.52
2023-02-23T14:12:41.038Z,36.06
2023-02-23T14:15:28.208Z,35.72
2023-02-23T14:17:55.474Z,36.29
2023-02-23T14:20:43.202Z,35.73
2023-02-23T14:23:16.671Z,33.75
2023-02-23T14:25:45.466Z,34.32
2023-02-23T14:28:27.039Z,36.23
2023-02-23T14:31:07.146Z,34.74
2023-02-23T14:33:41.917Z,33.85
2023-02-23T14:36:21.467Z,34.02
2023-02-23T14:38:51.595Z,34.14
2023-02-23T14:41:25.708Z,34.98
2023-02-23T14:43:54.231Z,35.75
2023-02-23T14:46:22.347Z,33.86
2023-02-23T14:49:05.554Z,35.84
2023-02-23T14:51:48.018Z,34.86
2023-02-23T14:54:21.195Z,34.99
2023-02-23T14:56:50.164Z,34.70
2023-02-23T14:59:18.603Z,36.19
2023-02-23T15:01:45.856Z,34.82
2023-02-23T15:04:14.521Z,36.01
2023-02-23T15:06:42.533Z,33.85
2023-02-23T15:09:13.736Z,33.71
2023-02-23T15:11:43.903Z,32.40
2023-02-23T15:14:25.605Z,32.57
2023-02-23T15:16:55.023Z,32.34
2023-02-23T15:19:33.135Z,33.50
2023-02-23T15:22:01.091Z,31.97
2023-02-23T15:24:31.032Z,32.62
2023-02-23T15:26:58.362Z,31.30
2023-02-23T15:29:30.328Z,31.87
2023-02-23T15:32:09.917Z,32.55
2023-02-23T15:34:37.680Z,32.10
2023-02-23T15:37:06.296Z,31.92
2023-02-23T15:39:37.435Z,31.91
2023-02-23T15:42:04.992Z,32.13
2023-02-23T15:44:42.582Z,32.25
2023-02-23T15:47:21.924Z,31.48
2023-02-23T15:49:50.326Z,31.28
2023-02-23T15:52:18.473Z,30.67
2023-02-23T15:55:00.495Z,31.59
2023-02-23T15:57:45.068Z,31.54
2023-02-23T16:00:33.484Z,31.38
2023-02-23T16:03:02.973Z,31.24
2023-02-23T16:05:41.846Z,31.70
2023-02-23T16:08:22.911Z,31.74
2023-02-23T16:10:51.177Z,31.44
2023-02-23T16:13:22.541Z,31.37
2023-02-23T16:15:50.135Z,31.65
2023-02-23T16:18:20.658Z,31.73
2023-02-23T16:20:48.785Z,31.76
2023-02-23T16:23:28.584Z,31.80
2023-02-23T16:26:02.670Z,31.40
2023-02-23T16:28:33.521Z,31.29
2023-02-23T16:31:02.428Z,31.64
2023-02-23T16:33:49.397Z,32.02
2023-02-23T16:36:22.301Z,32.18
2023-02-23T16:39:00.297Z,32.20
2023-02-23T16:41:30.667Z,32.15
2023-02-23T16:43:59.554Z,32.11
2023-02-23T16:46:47.677Z,31.95
2023-02-23T16:49:16.524Z,32.15
2023-02-23T16:51:44.660Z,32.16
2023-02-23T16:54:12.683Z,32.18
2023-02-23T16:56:40.770Z,32.21
2023-02-23T16:59:11.039Z,32.52
2023-02-23T17:01:39.167Z,32.85
2023-02-23T17:04:15.800Z,33.21
2023-02-23T17:06:44.897Z,34.52
2023-02-23T17:09:14.104Z,33.34
2023-02-23T17:11:42.706Z,33.09
2023-02-23T17:14:12.172Z,32.39
2023-02-23T17:16:40.955Z,32.42
2023-02-23T17:19:08.205Z,32.55
2023-02-23T17:21:36.921Z,32.31
2023-02-23T17:24:05.946Z,33.09
2023-02-23T17:26:33.735Z,32.34
2023-02-23T17:29:01.914Z,32.19
2023-02-23T17:31:32.497Z,32.30
2023-02-23T17:34:00.481Z,32.32
2023-02-23T17:36:28.870Z,32.13
2023-02-23T17:38:58.886Z,32.13
2023-02-23T17:41:27.284Z,32.08
2023-02-23T17:43:55.158Z,32.21
2023-02-23T17:46:25.133Z,32.26
2023-02-23T17:48:55.192Z,32.29
2023-02-23T17:51:26.669Z,32.55
2023-02-23T17:53:55.045Z,32.98
2023-02-23T17:56:24.579Z,33.08
2023-02-23T17:58:53.659Z,33.09
2023-02-23T18:01:21.820Z,33.26
2023-02-23T18:03:51.341Z,33.21
2023-02-23T18:06:20.189Z,33.46
2023-02-23T18:08:48.372Z,33.15
2023-02-23T18:11:19.113Z,33.41
2023-02-23T18:13:51.551Z,33.29
2023-02-23T18:16:21.703Z,33.31
2023-02-23T18:18:52.990Z,33.26
2023-02-23T18:21:42.617Z,33.33
2023-02-23T18:24:13.216Z,33.66
2023-02-23T18:26:41.877Z,33.96
2023-02-23T18:29:10.505Z,33.60
2023-02-23T18:31:38.875Z,33.41
2023-02-23T18:34:08.565Z,33.62
2023-02-23T18:36:39.650Z,33.37
2023-02-23T18:39:08.843Z,33.22
2023-02-23T18:41:37.074Z,33.38
2023-02-23T18:44:06.191Z,33.34
2023-02-23T18:46:39.989Z,34.08
2023-02-23T18:49:13.627Z,34.19
2023-02-23T18:51:43.436Z,33.75
2023-02-23T18:54:17.410Z,33.66
2023-02-23T18:56:50.237Z,34.30
2023-02-23T18:59:19.000Z,34.28
2023-02-23T19:01:48.953Z,34.00
2023-02-23T19:04:17.626Z,33.96
2023-02-23T19:06:51.493Z,33.98
2023-02-23T19:09:23.215Z,34.40
2023-02-23T19:11:52.004Z,34.37
2023-02-23T19:14:32.873Z,33.76
2023-02-23T19:17:05.203Z,33.63
2023-02-23T19:19:34.744Z,33.58
2023-02-23T19:22:03.397Z,33.81
2023-02-23T19:24:31.791Z,33.73
2023-02-23T19:27:00.621Z,33.66
2023-02-23T19:29:29.250Z,33.52
2023-02-23T19:31:58.836Z,33.58
2023-02-23T19:34:28.574Z,33.74
2023-02-23T19:36:58.543Z,33.66
2023-02-23T19:39:26.993Z,33.56
2023-02-23T19:41:55.999Z,33.48
2023-02-23T19:44:28.472Z,33.33
2023-02-23T19:47:06.020Z,34.22
2023-02-23T19:49:34.480Z,33.69
2023-02-23T19:52:03.557Z,33.75
2023-02-23T19:54:34.676Z,34.26
2023-02-23T19:57:06.124Z,34.04
2023-02-23T19:59:35.953Z,33.56
2023-02-23T20:02:05.118Z,33.52
2023-02-23T20:04:33.974Z,34.56
2023-02-23T20:07:02.558Z,34.06
2023-02-23T20:09:31.059Z,33.80
2023-02-23T20:11:59.940Z,34.24
2023-02-23T20:14:33.185Z,34.00
2023-02-23T20:17:01.828Z,34.39
2023-02-23T20:19:30.413Z,34.06
2023-02-23T20:21:59.649Z,33.85
2023-02-23T20:24:30.233Z,33.85
2023-02-23T20:26:59.890Z,33.92
2023-02-23T20:29:29.341Z,34.10
2023-02-23T20:32:00.022Z,33.74
2023-02-23T20:34:30.022Z,33.88
2023-02-23T20:37:00.914Z,34.58
2023-02-23T20:39:29.668Z,34.08
2023-02-23T20:41:58.341Z,33.65
2023-02-23T20:44:28.222Z,34.10
2023-02-23T20:46:57.221Z,33.21
2023-02-23T20:49:26.064Z,33.86
2023-02-23T20:51:57.554Z,32.92
2023-02-23T20:54:27.128Z,33.45
2023-02-23T20:57:15.334Z,34.00
2023-02-23T20:59:44.511Z,35.33
2023-02-23T21:02:14.572Z,35.19
2023-02-23T21:04:44.300Z,35.47
2023-02-23T21:07:13.847Z,35.35
2023-02-23T21:09:42.906Z,35.17
2023-02-23T21:12:11.131Z,37.02
2023-02-23T21:14:39.708Z,36.06
2023-02-23T21:17:07.908Z,36.37
2023-02-23T21:19:36.813Z,35.67
2023-02-23T21:22:04.551Z,35.48
2023-02-23T21:24:34.293Z,36.34
2023-02-23T21:27:05.627Z,35.63
2023-02-23T21:29:33.901Z,34.57
2023-02-23T21:32:02.148Z,35.09
2023-02-23T21:34:29.887Z,35.82
2023-02-23T21:36:59.628Z,35.58
2023-02-23T21:39:28.093Z,37.67
2023-02-23T21:41:55.841Z,36.20
2023-02-23T21:44:23.662Z,38.26
2023-02-23T21:46:52.134Z,38.64
2023-02-23T21:49:19.563Z,39.30
2023-02-23T21:51:47.177Z,39.86
2023-02-23T21:54:16.181Z,41.21
2023-02-23T21:56:43.471Z,39.57
2023-02-23T21:59:10.939Z,39.06
2023-02-23T22:01:38.743Z,37.74
2023-02-23T22:04:07.895Z,38.34
2023-02-23T22:06:38.431Z,39.26
2023-02-23T22:09:06.342Z,38.63
2023-02-23T22:11:36.388Z,38.79
2023-02-23T22:14:06.494Z,37.54
2023-02-23T22:16:35.954Z,38.14
2023-02-23T22:19:04.618Z,38.68
2023-02-23T22:21:34.294Z,38.66
2023-02-23T22:24:05.181Z,39.17
2023-02-23T22:26:37.365Z,39.02
2023-02-23T22:29:05.246Z,39.18
2023-02-23T22:31:32.496Z,39.09
2023-02-23T22:33:59.865Z,38.17
2023-02-23T22:36:27.326Z,39.63
2023-02-23T22:38:57.307Z,39.88
2023-02-23T22:41:24.556Z,38.25
2023-02-23T22:43:52.447Z,37.59
2023-02-23T22:46:19.618Z,37.79
2023-02-23T22:48:46.765Z,37.52
2023-02-23T22:51:15.955Z,38.89
2023-02-23T22:53:43.500Z,37.84
2023-02-23T22:56:10.687Z,39.68
2023-02-23T22:58:38.151Z,37.94
2023-02-23T23:01:09.831Z,39.68
2023-02-23T23:03:38.398Z,39.15
2023-02-23T23:06:08.115Z,38.50
2023-02-23T23:08:38.912Z,39.07
2023-02-23T23:11:15.570Z,38.64
2023-02-23T23:13:44.801Z,37.62
2023-02-23T23:16:28.887Z,37.10
2023-02-23T23:19:11.995Z,36.62
2023-02-23T23:21:40.334Z,38.42
2023-02-23T23:24:07.979Z,38.26
2023-02-23T23:26:35.962Z,39.18
2023-02-23T23:29:07.492Z,38.82
2023-02-23T23:31:35.046Z,39.53
2023-02-23T23:34:03.895Z,38.93
2023-02-23T23:36:32.356Z,40.19
2023-02-23T23:38:59.645Z,38.58
2023-02-23T23:41:27.423Z,38.36
2023-02-23T23:43:58.246Z,37.40
2023-02-23T23:46:26.935Z,37.31
2023-02-23T23:48:58.464Z,36.69
2023-02-23T23:51:30.503Z,35.90
2023-02-23T23:53:58.753Z,38.30
2023-02-23T23:56:26.062Z,39.20
2023-02-23T23:58:56.429Z,37.88
